M I D A S
Marine Information and Data Acquisition System
Tripno 2204 of the Zeeleeuw from 2011-10-24 11:38:50 to 2011-10-24 13:53:11
Back to CruiseResearch ActivitiesStationsMapUnderway DataData graphs

EquipmentUnitsComment
TimeDGPSUTC
LatitudeDGPSDM.mWGS84
LongitudeDGPSDM.mWGS84
TemperatureSBE03/SBE38deg celciusITS90
ConductivitySBE21S/mITS90
SalinitySBE21 Practical Salinity Units
ChlorophylAChelsea fluorimeterg/lCalibrated in Aceton
Missing or incorrect values are displayed as -999
Sea surface data collected by the RV Zeeleeuw from 2011-10-24 07:16:37 to 2011-10-24 14:01:22
Time Latitude Longitude Temperature Conductivity Salinity ChlorophylA
2011-10-24 07:17:43 51°13.632 2°56.017 18.0504 0.001484 0.015082 -3.020363
2011-10-24 07:18:42 51°13.632 2°56.017 18.0536 0.001484 0.015078 -3.020363
2011-10-24 07:19:42 51°13.633 2°56.017 18.0471 0.001484 0.015075 -3.020363
2011-10-24 07:20:43 51°13.632 2°56.017 18.0384 0.001484 0.015071 -3.020363
2011-10-24 07:21:42 51°13.632 2°56.017 18.0557 0.001484 0.015066 -3.020363
2011-10-24 07:22:42 51°13.633 2°56.017 18.0706 0.001484 0.01506 -3.020363
2011-10-24 07:23:43 51°13.633 2°56.016 18.0723 0.001484 0.015055 -3.020363
2011-10-24 07:24:42 51°13.635 2°56.016 18.0641 0.001484 0.015051 -3.020363
2011-10-24 07:25:42 51°13.635 2°56.016 18.0749 0.001484 0.015047 -3.020363
2011-10-24 07:26:42 51°13.632 2°56.019 18.0535 0.001484 0.015045 -3.020363
2011-10-24 07:27:43 51°13.632 2°56.02 18.0637 0.001484 0.015042 -3.020363
2011-10-24 07:28:43 51°13.632 2°56.019 18.0692 0.001484 0.015038 -3.020363
2011-10-24 07:29:42 51°13.631 2°56.019 18.0616 0.001484 0.015035 -3.020363
2011-10-24 07:30:42 51°13.631 2°56.019 18.0317 0.001484 0.015032 -3.020363
2011-10-24 07:31:42 51°13.631 2°56.02 18.1472 0.001484 0.015028 -3.020363
2011-10-24 07:32:42 51°13.631 2°56.021 18.1079 0.001484 0.015023 -3.020363
2011-10-24 07:33:42 51°13.631 2°56.02 17.9945 0.001484 0.015018 -3.020363
2011-10-24 07:34:43 51°13.631 2°56.02 18.0706 0.001484 0.015012 -3.020363
2011-10-24 07:35:43 51°13.632 2°56.02 18.0328 0.001484 0.015008 -3.020363
2011-10-24 07:36:42 51°13.633 2°56.02 18.045 0.001484 0.015004 -3.020363
2011-10-24 07:37:43 51°13.632 2°56.019 17.9141 0.001484 0.015 -3.020363
2011-10-24 07:38:43 51°13.633 2°56.021 17.7968 0.001484 0.014994 -3.020363
2011-10-24 07:39:42 51°13.633 2°56.02 17.8587 0.001484 0.014989 -3.020363
2011-10-24 07:40:43 51°13.633 2°56.022 17.9091 0.001484 0.014983 -3.020363
2011-10-24 07:41:42 51°13.633 2°56.021 17.9495 0.001484 0.014978 -3.020363
2011-10-24 07:42:42 51°13.633 2°56.019 17.9768 0.001484 0.014972 -3.020363
2011-10-24 07:43:42 51°13.632 2°56.019 17.9997 0.001484 0.014966 -3.020363
2011-10-24 07:44:42 51°13.63 2°56.018 17.9126 0.001484 0.014961 -3.020363
2011-10-24 07:45:42 51°13.637 2°55.981 18.0022 0.001484 0.014956 -3.020363
2011-10-24 07:46:42 51°13.651 2°55.907 18.0193 0.001484 0.01495 -3.020363
2011-10-24 07:47:42 51°13.673 2°55.82 18.0186 0.001484 0.014943 -3.020363
2011-10-24 07:48:42 51°13.689 2°55.742 17.8858 0.001484 0.014936 -3.020363
2011-10-24 07:49:40 51°13.71 2°55.753 17.8756 0.001484 0.014928 -3.020363
2011-10-24 07:50:41 51°13.703 2°55.743 17.9127 0.001484 0.014923 -3.020363
2011-10-24 07:51:42 51°13.727 2°55.721 17.9845 0.001484 0.014917 -3.020363
2011-10-24 07:51:53 51°13.738 2°55.712 17.6284 0.001484 0.01491 -3.020363
2011-10-24 07:53:42 51°13.738 2°55.712 17.8401 0.001484 0.014904 -3.020363
2011-10-24 07:54:42 51°13.738 2°55.712 17.8599 0.001484 0.014898 -3.020363
2011-10-24 07:55:42 51°13.738 2°55.712 17.8367 0.001484 0.014893 -3.020363
2011-10-24 07:56:42 51°14.359 2°55.225 17.6825 0.001484 0.014888 -3.020363
2011-10-24 07:57:40 51°14.485 2°55.107 17.8508 0.001484 0.014885 -3.020363
2011-10-24 07:58:39 51°14.611 2°54.999 17.8667 0.001484 0.014881 -3.020363
2011-10-24 07:59:39 51°14.733 2°54.867 12.73 0.263805 1.652097 -3.020363
2011-10-24 08:00:39 51°14.849 2°54.723 12.4473 2.646038 21.559309 -3.020363
2011-10-24 08:01:39 51°14.961 2°54.585 12.2841 3.16202 26.468864 -3.020363
2011-10-24 08:02:39 51°15.038 2°54.485 12.2659 3.194301 26.854449 -3.020363
2011-10-24 08:03:39 51°15.103 2°54.409 12.2467 3.253176 27.433636 -3.020363
2011-10-24 08:04:39 51°15.165 2°54.347 12.2331 3.065092 25.70411 -3.020363
2011-10-24 08:05:39 51°15.224 2°54.289 12.2513 3.213132 27.088934 -3.020363
2011-10-24 08:06:39 51°15.272 2°54.22 12.248 3.212098 27.079289 -3.020363
2011-10-24 08:07:39 51°15.312 2°54.143 12.2532 3.299432 27.898123 -3.020363
2011-10-24 08:08:39 51°15.354 2°54.072 12.279 3.098607 26.01993 -3.020363
2011-10-24 08:09:39 51°15.414 2°54.037 12.3108 3.189024 26.834841 -3.020363
2011-10-24 08:10:39 51°15.477 2°53.988 12.3356 3.201337 26.942614 -3.020363
2011-10-24 08:11:39 51°15.545 2°53.941 12.3658 3.282563 27.677561 -3.020363
2011-10-24 08:12:39 51°15.611 2°53.885 12.4035 3.203095 26.918363 -3.020363
2011-10-24 08:13:39 51°15.669 2°53.819 12.436 3.052885 25.504241 -3.020363
2011-10-24 08:14:39 51°15.725 2°53.759 12.4795 3.268903 27.484231 -3.020363
2011-10-24 08:15:39 51°15.793 2°53.752 12.5003 3.298705 27.730675 -3.020363
2011-10-24 08:16:39 51°15.844 2°53.813 12.511 3.253174 27.293829 -3.020363
2011-10-24 08:17:39 51°15.874 2°53.906 12.5124 3.223166 27.011855 -3.020363
2011-10-24 08:18:39 51°15.908 2°54.003 12.5108 3.217475 26.958514 -3.020363
2011-10-24 08:19:39 51°15.943 2°54.096 12.5134 3.173089 26.548327 -3.020363
2011-10-24 08:20:39 51°15.98 2°54.188 12.5108 3.159536 26.421853 -3.020363
2011-10-24 08:21:39 51°16.014 2°54.275 12.5074 3.189747 26.704219 -3.020363
2011-10-24 08:22:39 51°16.039 2°54.358 12.5074 3.19523 26.754967 -3.020363
2011-10-24 08:23:39 51°16.055 2°54.439 12.5039 3.059298 25.502941 -3.020363
2011-10-24 08:24:39 51°16.07 2°54.519 12.5046 3.046885 25.391086 -3.020363
2011-10-24 08:25:39 51°16.106 2°54.597 12.5023 3.117949 26.046228 -3.020363
2011-10-24 08:26:39 51°16.142 2°54.684 12.5038 3.045644 25.379672 -3.020363
2011-10-24 08:27:39 51°16.177 2°54.776 12.5022 2.954529 24.546344 -3.020363
2011-10-24 08:28:39 51°16.214 2°54.87 12.4992 2.931158 24.332419 -3.020363
2011-10-24 08:29:39 51°16.252 2°54.967 12.4973 2.906031 24.104861 -3.020363
2011-10-24 08:30:39 51°16.29 2°55.063 12.4966 2.916268 24.198438 -3.020363
2011-10-24 08:31:39 51°16.329 2°55.162 12.4962 2.922369 24.256432 -3.020363
2011-10-24 08:32:39 51°16.369 2°55.26 12.4956 2.878526 23.856374 -3.020363
2011-10-24 08:33:39 51°16.411 2°55.357 12.495 2.950289 24.511973 -3.020363
2011-10-24 08:34:39 51°16.452 2°55.456 12.4972 2.897758 24.030916 -3.020363
2011-10-24 08:35:39 51°16.494 2°55.556 12.4938 2.871495 23.792745 -3.020363
2011-10-24 08:36:39 51°16.526 2°55.659 12.4942 2.931572 24.342288 -3.020363
2011-10-24 08:37:39 51°16.539 2°55.759 12.4929 2.893829 23.997749 -3.020363
2011-10-24 08:38:39 51°16.529 2°55.835 12.4768 2.862086 23.710675 -3.020363
2011-10-24 08:39:39 51°16.503 2°55.885 12.4736 2.862087 23.719841 -3.020363
2011-10-24 08:40:39 51°16.473 2°55.938 12.4679 2.896001 24.032882 -3.020363
2011-10-24 08:41:39 51°16.443 2°55.998 12.4635 2.848335 23.600285 -3.020363
2011-10-24 08:42:39 51°16.409 2°56.067 12.4523 2.854436 23.65971 -3.020363
2011-10-24 08:43:39 51°16.368 2°56.114 12.442 2.857124 23.690176 -3.020363
2011-10-24 08:44:39 51°16.324 2°56.149 12.4308 2.855987 23.6868 -3.020363
2011-10-24 08:45:39 51°16.28 2°56.18 12.4171 2.856711 23.701503 -3.020363
2011-10-24 08:46:39 51°16.234 2°56.198 12.404 2.885351 23.970985 -3.020363
2011-10-24 08:47:39 51°16.189 2°56.211 12.3966 2.846682 23.626041 -3.020363
2011-10-24 08:48:39 51°16.155 2°56.177 12.3776 2.875632 23.897307 -3.020363
2011-10-24 08:49:39 51°16.113 2°56.128 12.3693 2.798504 23.202146 -3.020363
2011-10-24 08:50:39 51°16.076 2°56.056 12.3558 2.840789 23.593706 -3.020363
2011-10-24 08:51:39 51°16.033 2°55.987 12.3446 2.84234 23.617048 -3.020363
2011-10-24 08:52:39 51°16.008 2°55.897 12.3398 2.827555 23.486667 -3.020363
2011-10-24 08:53:39 51°15.977 2°55.815 12.3354 2.824351 23.460577 -3.020363
2011-10-24 08:54:39 51°15.94 2°55.737 12.3388 2.837377 23.581881 -3.020363
2011-10-24 08:55:39 51°15.907 2°55.655 12.342 2.84906 23.686647 -3.020363
2011-10-24 08:56:39 51°15.873 2°55.574 12.344 2.857745 23.763997 -3.020363
2011-10-24 08:57:39 51°15.839 2°55.488 12.3414 2.859606 23.780497 -3.020363
2011-10-24 08:58:39 51°15.804 2°55.403 12.3408 2.861571 23.799031 -3.020363
2011-10-24 08:59:39 51°15.768 2°55.317 12.3455 2.739995 22.689229 -3.020363
2011-10-24 09:00:39 51°15.735 2°55.226 12.3386 2.851645 23.707604 -3.020363
2011-10-24 09:01:39 51°15.702 2°55.137 12.3398 2.860744 23.793086 -3.020363
2011-10-24 09:02:39 51°15.672 2°55.05 12.336 2.887937 24.042308 -3.020363
2011-10-24 09:03:39 51°15.642 2°54.962 12.3378 2.830657 23.518788 -3.020363
2011-10-24 09:04:39 51°15.613 2°54.874 12.3352 2.864776 23.83111 -3.020363
2011-10-24 09:05:39 51°15.581 2°54.79 12.3407 2.849371 23.690569 -3.020363
2011-10-24 09:06:39 51°15.549 2°54.706 12.3374 2.85392 23.731679 -3.020363
2011-10-24 09:07:39 51°15.517 2°54.623 12.3347 2.848957 23.687865 -3.020363
2011-10-24 09:08:39 51°15.487 2°54.538 12.3318 2.857539 23.766445 -3.020363
2011-10-24 09:09:39 51°15.456 2°54.453 12.3295 2.850094 23.700442 -3.020363
2011-10-24 09:10:39 51°15.42 2°54.376 12.3258 2.84234 23.631073 -3.020363
2011-10-24 09:11:39 51°15.383 2°54.299 12.3224 2.829417 23.514958 -3.020363
2011-10-24 09:12:39 51°15.349 2°54.216 12.3166 2.853196 23.734808 -3.020363
2011-10-24 09:13:39 51°15.316 2°54.131 12.3119 2.861985 23.818592 -3.020363
2011-10-24 09:14:39 51°15.284 2°54.043 12.3087 2.790131 23.163272 -3.020363
2011-10-24 09:15:39 51°15.246 2°53.961 12.304 2.842133 23.642141 -3.020363
2011-10-24 09:16:39 51°15.21 2°53.879 12.2992 2.833966 23.570043 -3.020363
2011-10-24 09:17:39 51°15.179 2°53.79 12.2981 2.833759 23.570844 -3.020363
2011-10-24 09:18:39 51°15.147 2°53.7 12.3011 2.866327 23.868759 -3.020363
2011-10-24 09:19:39 51°15.114 2°53.613 12.3048 2.847096 23.690847 -3.020363
2011-10-24 09:20:39 51°15.078 2°53.529 12.3148 2.865914 23.859512 -3.020363
2011-10-24 09:21:39 51°15.045 2°53.442 12.3258 2.845338 23.665007 -3.020363
2011-10-24 09:22:39 51°15.015 2°53.351 12.3352 2.859089 23.785539 -3.020363
2011-10-24 09:23:39 51°14.983 2°53.269 12.3433 2.869842 23.87862 -3.020363
2011-10-24 09:24:39 51°14.951 2°53.195 12.3562 2.847303 23.665694 -3.020363
2011-10-24 09:25:39 51°14.922 2°53.118 12.3676 2.834896 23.544661 -3.020363
2011-10-24 09:26:39 51°14.895 2°53.04 12.3764 2.839031 23.576021 -3.020363
2011-10-24 09:27:39 51°14.866 2°52.97 12.3914 2.835826 23.53974 -3.020363
2011-10-24 09:28:39 51°14.836 2°52.899 12.4056 2.850507 23.664777 -3.020363
2011-10-24 09:29:39 51°14.808 2°52.824 12.4202 2.874598 23.876411 -3.020363
2011-10-24 09:30:39 51°14.78 2°52.749 12.428 2.840271 23.555662 -3.020363
2011-10-24 09:31:39 51°14.75 2°52.676 12.4399 2.83779 23.526041 -3.020363
2011-10-24 09:32:39 51°14.719 2°52.605 12.4478 2.874287 23.853463 -3.020363
2011-10-24 09:33:39 51°14.689 2°52.532 12.4543 2.841719 23.551713 -3.020363
2011-10-24 09:34:39 51°14.662 2°52.454 12.455 2.874598 23.848698 -3.020363
2011-10-24 09:35:39 51°14.636 2°52.374 12.4611 2.853298 23.651483 -3.020363
2011-10-24 09:36:39 51°14.608 2°52.298 12.4668 2.847819 23.599326 -3.020363
2011-10-24 09:37:39 51°14.58 2°52.222 12.4722 2.838513 23.510699 -3.020363
2011-10-24 09:38:39 51°14.548 2°52.149 12.4771 2.855883 23.666461 -3.020363
2011-10-24 09:39:39 51°14.517 2°52.076 12.4827 2.870978 23.800469 -3.020363
2011-10-24 09:40:39 51°14.494 2°51.995 12.4911 2.842132 23.532994 -3.020363
2011-10-24 09:41:39 51°14.474 2°51.907 12.4983 2.868393 23.768222 -3.020363
2011-10-24 09:42:39 51°14.49 2°51.763 12.5632 2.88535 23.91596 -3.020363
2011-10-24 09:43:39 51°14.633 2°51.825 12.5772 2.949874 24.440425 -3.020363
2011-10-24 09:44:39 51°14.694 2°52.14 12.6057 2.974384 24.67333 -3.020363
2011-10-24 09:45:39 51°14.702 2°52.486 12.5935 2.877388 23.776304 -3.020363
2011-10-24 09:46:39 51°14.714 2°52.83 12.5453 2.91637 24.14124 -3.020363
2011-10-24 09:47:39 51°14.759 2°53.172 12.5084 2.903755 24.050192 -3.020363
2011-10-24 09:48:39 51°14.811 2°53.513 12.4641 2.918646 24.219083 -3.020363
2011-10-24 09:49:39 51°14.852 2°53.855 12.4176 2.913993 24.20129 -3.020363
2011-10-24 09:50:39 51°14.838 2°54.194 12.3933 2.866326 23.780707 -3.020363
2011-10-24 09:51:39 51°14.782 2°54.499 12.3625 2.910685 24.212883 -3.020363
2011-10-24 09:52:39 51°14.697 2°54.776 12.2613 2.907583 24.216475 -3.020363
2011-10-24 09:53:39 51°14.573 2°54.996 12.1465 2.909032 24.290221 -3.020363
2011-10-24 09:54:39 51°14.426 2°55.15 12.0454 2.939538 24.641061 -3.020363
2011-10-24 09:55:39 51°14.304 2°55.268 12.1982 0.269157 1.88195 -3.020363
2011-10-24 09:56:39 51°14.19 2°55.371 12.3612 0.085073 0.560741 -3.020363
2011-10-24 09:57:39 51°14.101 2°55.434 12.3936 0.073454 0.480678 -3.020363
2011-10-24 09:58:39 51°14.016 2°55.491 12.4477 0.066256 0.431335 -3.020363
2011-10-24 09:59:39 51°13.929 2°55.549 12.5692 0.061321 0.397599 -3.020363
2011-10-24 10:00:38 51°13.845 2°55.609 12.7056 0.064611 0.419268 -3.020363
2011-10-24 10:01:39 51°13.769 2°55.687 12.7586 0.066462 0.431238 -3.020363
2011-10-24 10:01:42 51°13.766 2°55.692 12.8699 0.066667 0.432126 -3.020363
2011-10-24 10:03:39 51°13.683 2°55.848 12.9573 0.065125 0.421264 -3.020363
2011-10-24 10:04:39 51°13.656 2°55.912 13.0688 0.063583 0.410415 -3.020363
2011-10-24 10:05:39 51°13.642 2°55.981 13.1267 0.062658 0.403735 -3.020363
2011-10-24 10:06:39 51°13.638 2°56.017 13.296 0.061732 0.397068 -3.020363
2011-10-24 10:07:39 51°13.636 2°56.018 13.3721 0.059881 0.384295 -3.020363
2011-10-24 10:08:39 51°13.637 2°56.018 13.4422 0.058031 0.371564 -3.020363
2011-10-24 10:09:39 51°13.637 2°56.018 13.5031 0.056386 0.360236 -3.020363
2011-10-24 10:10:39 51°13.637 2°56.019 13.569 0.054946 0.350308 -3.020363
2011-10-24 10:11:39 51°13.636 2°56.019 13.6529 0.05361 0.341101 -3.020363
2011-10-24 10:12:39 51°13.635 2°56.02 13.7106 0.052273 0.33195 -3.020363
2011-10-24 10:13:39 51°13.635 2°56.02 13.7857 0.051142 0.324212 -3.020363
2011-10-24 10:14:39 51°13.635 2°56.021 13.8521 0.050011 0.316506 -3.020363
2011-10-24 10:15:39 51°13.635 2°56.021 13.9424 0.049086 0.310177 -3.020363
2011-10-24 10:16:39 51°13.635 2°56.02 14.0431 0.04816 0.303879 -3.020363
2011-10-24 10:17:39 51°13.635 2°56.02 14.1234 0.047646 0.300278 -3.020363
2011-10-24 10:18:39 51°13.636 2°56.019 14.1981 0.047132 0.296678 -3.020363
2011-10-24 10:19:39 51°13.637 2°56.02 14.2711 0.046412 0.291761 -3.020363
2011-10-24 10:20:39 51°13.637 2°56.019 14.3483 0.045693 0.286862 -3.020363
2011-10-24 10:21:39 51°13.637 2°56.019 14.4247 0.044973 0.281982 -3.020363
2011-10-24 10:22:39 51°13.637 2°56.019 14.5024 0.044459 0.278439 -3.020363
2011-10-24 10:23:39 51°13.636 2°56.019 14.5737 0.046721 0.292824 -3.020363
2011-10-24 10:24:39 51°13.636 2°56.018 14.6363 0.049188 0.308553 -3.020363
2011-10-24 10:25:39 51°13.635 2°56.018 14.7147 0.046515 0.29107 -3.020363
2011-10-24 10:26:39 51°13.635 2°56.019 14.7708 0.044973 0.280933 -3.020363
2011-10-24 10:27:39 51°13.635 2°56.02 14.846 0.043945 0.274128 -3.020363
2011-10-24 10:28:39 51°13.635 2°56.02 14.9246 0.043122 0.268647 -3.020363
2011-10-24 10:29:39 51°13.634 2°56.019 14.9856 0.042403 0.263843 -3.020363
2011-10-24 10:30:39 51°13.635 2°56.019 15.0437 0.04158 0.258394 -3.020363
2011-10-24 10:31:39 51°13.634 2°56.019 15.115 0.040758 0.252969 -3.020363
2011-10-24 10:32:39 51°13.635 2°56.02 15.1808 0.039935 0.247563 -3.020363
2011-10-24 10:33:39 51°13.635 2°56.02 15.2466 0.039215 0.242823 -3.020363
2011-10-24 10:34:39 51°13.636 2°56.021 15.3195 0.038496 0.238094 -3.020363
2011-10-24 10:35:39 51°13.635 2°56.022 15.3782 0.037776 0.23338 -3.020363
2011-10-24 10:36:39 51°13.635 2°56.022 15.4342 0.037159 0.229332 -3.020363
2011-10-24 10:37:39 51°13.635 2°56.021 15.49 0.036542 0.225298 -3.020363
2011-10-24 10:38:39 51°13.634 2°56.02 15.567 0.036542 0.225163 -3.020363
2011-10-24 10:39:39 51°13.634 2°56.021 15.6248 0.036234 0.223084 -3.020363
2011-10-24 10:40:39 51°13.634 2°56.021 15.682 0.035822 0.22037 -3.020363
2011-10-24 10:41:39 51°13.635 2°56.021 15.7347 0.035411 0.217669 -3.020363
2011-10-24 10:42:39 51°13.635 2°56.019 15.7934 0.035 0.214973 -3.020363
2011-10-24 10:43:39 51°13.635 2°56.019 15.8578 0.034486 0.211641 -3.020363
2011-10-24 10:44:39 51°13.636 2°56.019 15.9026 0.034075 0.208959 -3.020363
2011-10-24 10:45:39 51°13.636 2°56.019 15.9568 0.033663 0.206281 -3.020363
2011-10-24 10:46:39 51°13.636 2°56.018 16.016 0.033252 0.203607 -3.020363
2011-10-24 10:47:39 51°13.638 2°56.019 16.0677 0.032944 0.201589 -3.020363
2011-10-24 10:48:39 51°13.636 2°56.019 16.1266 0.032532 0.198932 -3.020363
2011-10-24 10:49:39 51°13.637 2°56.019 16.179 0.032224 0.196923 -3.020363
2011-10-24 10:50:39 51°13.638 2°56.019 16.231 0.031916 0.194914 -3.020363
2011-10-24 10:51:38 51°13.636 2°56.019 16.2839 0.031607 0.192904 -3.020363
2011-10-24 10:52:39 51°13.638 2°56.019 16.3199 0.031402 0.191528 -3.020363
2011-10-24 10:53:39 51°13.637 2°56.019 16.3707 0.031093 0.189519 -3.020363
2011-10-24 10:54:39 51°13.639 2°56.018 16.4262 0.030887 0.188151 -3.020363
2011-10-24 10:55:38 51°13.639 2°56.019 16.4722 0.030682 0.186796 -3.020363
2011-10-24 10:56:39 51°13.637 2°56.019 16.5107 0.030373 0.184814 -3.020363
2011-10-24 10:57:39 51°13.638 2°56.019 16.5611 0.030168 0.183478 -3.020363
2011-10-24 10:58:39 51°13.638 2°56.018 16.6055 0.029962 0.182136 -3.020363
2011-10-24 10:59:39 51°13.638 2°56.019 16.6535 0.029757 0.180795 -3.020363
2011-10-24 11:00:39 51°13.638 2°56.019 16.7054 0.029654 0.180088 -3.020363
2011-10-24 11:01:39 51°13.638 2°56.019 16.756 0.029448 0.178757 -3.020363
2011-10-24 11:02:39 51°13.638 2°56.019 16.8033 0.029242 0.177428 -3.020363
2011-10-24 11:03:39 51°13.638 2°56.019 16.8495 0.029037 0.1761 -3.020363
2011-10-24 11:04:39 51°13.639 2°56.018 16.8957 0.028934 0.175407 -3.020363
2011-10-24 11:05:39 51°13.637 2°56.018 16.9806 0.028728 0.174088 -3.020363
2011-10-24 11:06:39 51°13.637 2°56.019 17.0101 0.028626 0.173407 -3.020363
2011-10-24 11:07:39 51°13.637 2°56.019 17.0562 0.02842 0.172091 -3.020363
2011-10-24 11:08:39 51°13.636 2°56.018 17.0984 0.028317 0.171408 -3.020363
2011-10-24 11:09:38 51°13.636 2°56.019 17.1377 0.028214 0.170725 -3.020363
2011-10-24 11:10:39 51°13.637 2°56.019 17.171 0.028009 0.169402 -3.020363
2011-10-24 11:11:39 51°13.635 2°56.019 17.2202 0.027906 0.168711 -3.020363
2011-10-24 11:12:39 51°13.636 2°56.02 17.2373 0.027803 0.168017 -3.020363
2011-10-24 11:13:38 51°13.637 2°56.02 17.2755 0.0277 0.167321 -3.020363
2011-10-24 11:14:39 51°13.638 2°56.02 17.3133 0.027495 0.165999 -3.020363
2011-10-24 11:15:38 51°13.638 2°56.02 17.3471 0.027392 0.165304 -3.020363
2011-10-24 11:16:39 51°13.637 2°56.02 17.3887 0.027289 0.164614 -3.020363
2011-10-24 11:17:39 51°13.636 2°56.02 17.4207 0.027186 0.163921 -3.020363
2011-10-24 11:18:39 51°13.636 2°56.02 17.4605 0.027083 0.163232 -3.020363
2011-10-24 11:19:39 51°13.636 2°56.02 17.4956 0.026981 0.162546 -3.020363
2011-10-24 11:20:39 51°13.636 2°56.02 17.5364 0.026878 0.161865 -3.020363
2011-10-24 11:21:39 51°13.636 2°56.02 17.5788 0.026775 0.161184 -3.020363
2011-10-24 11:22:39 51°13.636 2°56.019 17.6045 0.026672 0.160501 -3.020363
2011-10-24 11:23:39 51°13.636 2°56.02 17.6395 0.026569 0.159818 -3.020363
2011-10-24 11:24:39 51°13.635 2°56.019 17.6983 0.026467 0.159136 -3.020363
2011-10-24 11:25:39 51°13.636 2°56.02 17.7461 0.026364 0.158455 -3.020363
2011-10-24 11:26:39 51°13.636 2°56.019 17.7823 0.026261 0.157771 -3.020363
2011-10-24 11:27:39 51°13.636 2°56.02 17.8024 0.026158 0.157088 -3.020363
2011-10-24 11:28:39 51°13.636 2°56.019 17.8444 0.026158 0.15703 -3.020363
2011-10-24 11:29:39 51°13.637 2°56.02 17.8747 0.026055 0.156348 -3.020363
2011-10-24 11:30:39 51°13.637 2°56.02 17.9165 0.025952 0.155673 -3.020363
2011-10-24 11:31:39 51°13.638 2°56.021 17.9377 0.02585 0.155001 -3.020363
2011-10-24 11:32:39 51°13.638 2°56.021 17.9634 0.02585 0.154953 -3.020363
2011-10-24 11:33:39 51°13.638 2°56.02 18.0097 0.025747 0.154282 -3.020363
2011-10-24 11:34:39 51°13.638 2°56.02 18.0326 0.025644 0.153606 -3.020363
2011-10-24 11:35:39 51°13.637 2°56.02 18.0583 0.025644 0.15355 -3.020363
2011-10-24 11:36:38 51°13.636 2°56.019 18.0919 0.025541 0.152874 -3.020363
2011-10-24 11:37:39 51°13.635 2°56.019 18.1226 0.025541 0.152818 -3.020363
2011-10-24 11:38:39 51°13.635 2°56.013 18.0943 0.025438 0.152144 -3.020363
2011-10-24 11:39:42 51°13.646 2°55.958 18.2857 0.025438 0.152097 -3.020363
2011-10-24 11:40:41 51°13.652 2°55.941 18.267 0.025336 0.15143 -3.020363
2011-10-24 11:41:42 51°13.678 2°55.868 18.2908 0.025336 0.151389 -3.020363
2011-10-24 11:42:42 51°13.696 2°55.771 18.3072 0.025233 0.150728 -3.020363
2011-10-24 11:43:41 51°13.7 2°55.724 18.3507 0.02513 0.150065 -3.020363
2011-10-24 11:44:39 51°13.728 2°55.717 18.3915 0.02513 0.15003 -3.020363
2011-10-24 11:45:39 51°13.82 2°55.644 18.1534 0.025027 0.149368 -3.020363
2011-10-24 11:46:39 51°13.95 2°55.556 18.2699 0.025027 0.149322 -3.020363
2011-10-24 11:47:39 51°14.093 2°55.453 18.3013 0.024924 0.148652 -3.020363
2011-10-24 11:48:42 51°14.246 2°55.322 18.3842 0.024924 0.1486 -3.020363
2011-10-24 11:49:41 51°14.388 2°55.188 18.3454 0.024822 0.147928 -3.020363
2011-10-24 11:50:39 51°14.528 2°55.055 18.3673 0.024822 0.147866 -3.020363
2011-10-24 11:51:39 51°14.672 2°54.911 18.4631 0.024719 0.147187 -3.020363
2011-10-24 11:52:39 51°14.813 2°54.766 18.4759 0.024719 0.147116 -3.020363
2011-10-24 11:53:39 51°14.945 2°54.612 18.426 0.024616 0.146419 -3.020363
2011-10-24 11:54:39 51°15.063 2°54.467 18.4244 0.024616 0.146355 -3.020363
2011-10-24 11:55:39 51°15.135 2°54.38 18.3841 0.024513 0.145658 -3.020363
2011-10-24 11:56:39 51°15.192 2°54.316 18.4084 0.024513 0.145592 -3.020363
2011-10-24 11:57:39 51°15.245 2°54.26 18.4597 0.02441 0.144919 -3.020363
2011-10-24 11:58:39 51°15.298 2°54.212 18.4691 0.02441 0.144866 -3.020363
2011-10-24 11:59:39 51°15.348 2°54.162 18.4788 0.024307 0.144205 -3.020363
2011-10-24 12:00:39 51°15.396 2°54.112 18.5246 0.024307 0.144159 -3.020363
2011-10-24 12:01:39 51°15.44 2°54.056 18.5484 0.024205 0.143504 -3.020363
2011-10-24 12:02:39 51°15.482 2°53.997 18.6012 0.024205 0.143461 -3.020363
2011-10-24 12:03:39 51°15.524 2°53.939 18.6131 0.024205 0.143407 -3.020363
2011-10-24 12:04:39 51°15.567 2°53.881 18.6111 0.024102 0.142739 -3.020363
2011-10-24 12:05:39 51°15.605 2°53.817 18.6703 0.024102 0.142688 -3.020363
2011-10-24 12:06:39 51°15.642 2°53.752 18.6847 0.024102 0.142629 -3.020363
2011-10-24 12:07:39 51°15.683 2°53.696 18.6987 0.023999 0.141942 -3.020363
2011-10-24 12:08:39 51°15.732 2°53.681 18.6973 0.023999 0.141865 -3.020363
2011-10-24 12:09:39 51°15.775 2°53.703 18.7182 0.023896 0.141195 -3.020363
2011-10-24 12:10:39 51°15.808 2°53.757 18.7714 0.023896 0.141142 -3.020363
2011-10-24 12:11:39 51°15.829 2°53.847 18.8191 0.023896 0.141099 -3.020363
2011-10-24 12:12:39 51°15.861 2°53.945 18.8059 0.023793 0.140452 -3.020363
2011-10-24 12:13:39 51°15.897 2°54.033 18.8472 0.023793 0.140426 -3.020363
2011-10-24 12:14:39 51°15.926 2°54.119 18.8673 0.023691 0.139794 -3.020363
2011-10-24 12:15:39 51°15.953 2°54.205 18.8953 0.023691 0.139776 -3.020363
2011-10-24 12:16:39 51°15.984 2°54.289 18.894 0.023691 0.13976 -3.020363
2011-10-24 12:17:39 51°16.019 2°54.371 18.9337 0.023588 0.139135 -3.020363
2011-10-24 12:18:39 51°16.051 2°54.454 18.9513 0.023588 0.139119 -3.020363
2011-10-24 12:19:39 51°16.084 2°54.535 18.961 0.023485 0.138497 -3.020363
2011-10-24 12:20:39 51°16.113 2°54.617 19.0077 0.023485 0.138487 -3.020363
2011-10-24 12:21:39 51°16.144 2°54.7 19.0157 0.023485 0.138476 -3.020363
2011-10-24 12:22:39 51°16.173 2°54.783 19.0442 0.023382 0.137857 -3.020363
2011-10-24 12:23:39 51°16.207 2°54.863 19.0582 0.023382 0.137847 -3.020363
2011-10-24 12:24:39 51°16.241 2°54.943 19.082 0.023279 0.13723 -3.020363
2011-10-24 12:25:39 51°16.271 2°55.024 19.0926 0.023279 0.137222 -3.020363
2011-10-24 12:26:39 51°16.303 2°55.105 19.1177 0.023177 0.136606 -3.020363
2011-10-24 12:27:39 51°16.336 2°55.187 19.131 0.023177 0.136598 -3.020363
2011-10-24 12:28:39 51°16.369 2°55.267 19.1696 0.023177 0.136591 -3.020363
2011-10-24 12:29:39 51°16.401 2°55.35 19.1812 0.023074 0.135974 -3.020363
2011-10-24 12:30:39 51°16.432 2°55.433 19.1754 0.023074 0.135967 -3.020363
2011-10-24 12:31:39 51°16.466 2°55.512 19.2062 0.023074 0.135957 -3.020363
2011-10-24 12:32:39 51°16.499 2°55.593 19.2218 0.022971 0.135343 -3.020363
2011-10-24 12:33:39 51°16.522 2°55.672 19.2281 0.022971 0.135336 -3.020363
2011-10-24 12:34:39 51°16.511 2°55.736 19.2817 0.022971 0.135331 -3.020363
2011-10-24 12:35:39 51°16.482 2°55.778 19.3033 0.022868 0.134715 -3.020363
2011-10-24 12:36:39 51°16.45 2°55.818 19.3264 0.022868 0.134703 -3.020363
2011-10-24 12:37:39 51°16.422 2°55.865 19.3437 0.022868 0.134683 -3.020363
2011-10-24 12:38:39 51°16.395 2°55.916 19.3523 0.022868 0.134658 -3.020363
2011-10-24 12:39:39 51°16.367 2°55.966 19.3745 0.022765 0.134023 -3.020363
2011-10-24 12:40:39 51°16.337 2°56.014 19.3912 0.022765 0.133998 -3.020363
2011-10-24 12:41:39 51°16.302 2°56.063 19.3796 0.022765 0.133973 -3.020363
2011-10-24 12:42:39 51°16.254 2°56.079 19.4193 0.022662 0.133334 -3.020363
2011-10-24 12:43:39 51°16.199 2°56.076 19.4225 0.022662 0.1333 -3.020363
2011-10-24 12:44:39 51°16.142 2°56.067 19.4399 0.022662 0.133265 -3.020363
2011-10-24 12:45:39 51°16.094 2°56.013 19.4577 0.02256 0.132624 -3.020363
2011-10-24 12:46:39 51°16.041 2°55.961 19.4579 0.02256 0.132588 -3.020363
2011-10-24 12:47:39 51°15.997 2°55.878 19.5083 0.02256 0.132553 -3.020363
2011-10-24 12:48:39 51°15.95 2°55.795 19.4671 0.02256 0.132519 -3.020363
2011-10-24 12:49:39 51°15.917 2°55.696 19.5184 0.02256 0.132487 -3.020363
2011-10-24 12:50:39 51°15.879 2°55.605 19.5417 0.022457 0.131846 -3.020363
2011-10-24 12:51:39 51°15.841 2°55.524 19.5396 0.022457 0.131812 -3.020363
2011-10-24 12:52:39 51°15.808 2°55.438 19.5619 0.022457 0.13178 -3.020363
2011-10-24 12:53:39 51°15.777 2°55.355 19.5807 0.022457 0.131749 -3.020363
2011-10-24 12:54:39 51°15.747 2°55.27 19.5915 0.022457 0.13172 -3.020363
2011-10-24 12:55:39 51°15.717 2°55.184 19.5913 0.022457 0.131688 -3.020363
2011-10-24 12:56:39 51°15.685 2°55.1 19.6122 0.022354 0.131055 -3.020363
2011-10-24 12:57:39 51°15.654 2°55.013 19.5999 0.022354 0.131026 -3.020363
2011-10-24 12:58:39 51°15.625 2°54.925 19.6276 0.022354 0.130997 -3.020363
2011-10-24 12:59:39 51°15.593 2°54.841 19.6434 0.022354 0.130971 -3.020363
2011-10-24 13:00:39 51°15.561 2°54.755 19.6874 0.022354 0.130937 -3.020363
2011-10-24 13:01:39 51°15.528 2°54.673 19.689 0.022251 0.130301 -3.020363
2011-10-24 13:02:39 51°15.494 2°54.603 19.7053 0.022251 0.130267 -3.020363
2011-10-24 13:03:39 51°15.465 2°54.534 19.6997 0.022251 0.130236 -3.020363
2011-10-24 13:04:39 51°15.437 2°54.461 19.7057 0.022251 0.130205 -3.020363
2011-10-24 13:05:39 51°15.408 2°54.391 19.7202 0.022148 0.129572 -3.020363
2011-10-24 13:06:39 51°15.382 2°54.317 19.752 0.022148 0.129541 -3.020363
2011-10-24 13:07:39 51°15.354 2°54.246 19.7476 0.022148 0.12951 -3.020363
2011-10-24 13:08:39 51°15.324 2°54.173 19.769 0.022148 0.129477 -3.020363
2011-10-24 13:09:39 51°15.295 2°54.097 19.7701 0.022046 0.128847 -3.020363
2011-10-24 13:10:39 51°15.267 2°54.018 19.7747 0.022046 0.128824 -3.020363
2011-10-24 13:11:39 51°15.237 2°53.941 19.8236 0.022046 0.1288 -3.020363
2011-10-24 13:12:39 51°15.21 2°53.861 19.8144 0.022046 0.128777 -3.020363
2011-10-24 13:13:39 51°15.181 2°53.784 19.8423 0.022046 0.128756 -3.020363
2011-10-24 13:14:39 51°15.151 2°53.708 19.8517 0.021943 0.128129 -3.020363
2011-10-24 13:15:39 51°15.122 2°53.63 19.8398 0.021943 0.128106 -3.020363
2011-10-24 13:16:39 51°15.095 2°53.55 19.8514 0.021943 0.128085 -3.020363
2011-10-24 13:17:39 51°15.063 2°53.478 19.8814 0.021943 0.128064 -3.020363
2011-10-24 13:18:39 51°15.033 2°53.401 19.8957 0.021943 0.128041 -3.020363
2011-10-24 13:19:39 51°15.001 2°53.326 19.9132 0.02184 0.127415 -3.020363
2011-10-24 13:20:39 51°14.969 2°53.247 19.9188 0.02184 0.12739 -3.020363
2011-10-24 13:21:39 51°14.939 2°53.165 19.9326 0.02184 0.127367 -3.020363
2011-10-24 13:22:39 51°14.907 2°53.086 19.9473 0.02184 0.127341 -3.020363
2011-10-24 13:23:39 51°14.875 2°53.01 19.937 0.02184 0.127318 -3.020363
2011-10-24 13:24:39 51°14.844 2°52.932 19.9626 0.021737 0.126698 -3.020363
2011-10-24 13:25:39 51°14.815 2°52.851 19.9666 0.021737 0.126678 -3.020363
2011-10-24 13:26:39 51°14.784 2°52.773 19.9578 0.021737 0.126657 -3.020363
2011-10-24 13:27:38 51°14.752 2°52.697 19.9818 0.021737 0.126637 -3.020363
2011-10-24 13:28:39 51°14.72 2°52.618 19.9657 0.021737 0.126616 -3.020363
2011-10-24 13:29:39 51°14.695 2°52.53 20.0074 0.021634 0.125997 -3.020363
2011-10-24 13:30:39 51°14.666 2°52.447 20.0262 0.021634 0.125972 -3.020363
2011-10-24 13:31:39 51°14.634 2°52.366 20.0289 0.021634 0.125949 -3.020363
2011-10-24 13:32:39 51°14.603 2°52.285 20.0061 0.021634 0.125924 -3.020363
2011-10-24 13:33:39 51°14.568 2°52.208 20.04 0.021634 0.125897 -3.020363
2011-10-24 13:34:39 51°14.536 2°52.129 20.0468 0.021532 0.125274 -3.020363
2011-10-24 13:35:39 51°14.514 2°52.038 20.0625 0.021532 0.125252 -3.020363
2011-10-24 13:36:39 51°14.494 2°51.944 20.0844 0.021532 0.125227 -3.020363
2011-10-24 13:37:39 51°14.486 2°51.84 19.9756 0.021532 0.125197 -3.020363
2011-10-24 13:38:39 51°14.554 2°51.796 19.9648 0.021532 0.125166 -3.020363
2011-10-24 13:39:39 51°14.591 2°51.955 20.0544 0.021532 0.125148 -3.020363
2011-10-24 13:40:39 51°14.625 2°52.238 20.0607 0.021532 0.125123 -3.020363
2011-10-24 13:41:39 51°14.653 2°52.537 20.0382 0.021532 0.125103 -3.020363
2011-10-24 13:42:39 51°14.68 2°52.838 20.0434 0.021532 0.125091 -3.020363
2011-10-24 13:43:39 51°14.707 2°53.139 20.072 0.021429 0.124484 -3.020363
2011-10-24 13:44:39 51°14.729 2°53.44 20.0739 0.021429 0.124475 -3.020363
2011-10-24 13:45:38 51°14.747 2°53.736 20.1055 0.021429 0.12447 -3.020363
2011-10-24 13:46:39 51°14.758 2°54.043 20.1046 0.021429 0.124466 -3.020363
2011-10-24 13:47:39 51°14.732 2°54.338 20.1191 0.021429 0.124464 -3.020363
2011-10-24 13:48:39 51°14.675 2°54.62 20.1282 0.021429 0.124461 -3.020363
2011-10-24 13:49:39 51°14.586 2°54.879 20.1318 0.021429 0.124453 -3.020363
2011-10-24 13:50:39 51°14.451 2°55.08 20.1598 0.021429 0.12443 -3.020363
2011-10-24 13:51:39 51°14.299 2°55.252 20.1718 0.021326 0.123808 -3.020363
2011-10-24 13:52:42 51°14.174 2°55.379 20.2817 0.021326 0.12379 -3.020363
2011-10-24 13:53:42 51°14.06 2°55.464 20.3732 0.021326 0.123728 -3.020363
2011-10-24 13:54:39 51°13.948 2°55.538 20.3589 0.021326 0.123674 -3.020363
2011-10-24 13:55:38 51°13.839 2°55.616 20.3487 0.021326 0.123608 -3.020363
2011-10-24 13:56:35 51°13.776 2°55.687 20.3723 0.021326 0.123546 -3.020363
2011-10-24 13:57:42 51°13.718 2°55.785 20.379 0.021326 0.123484 -3.020363
2011-10-24 13:58:42 51°13.67 2°55.881 20.3642 0.021326 0.123425 -3.020363
2011-10-24 13:59:42 51°13.643 2°55.96 20.3835 0.021326 0.123368 -3.020363
2011-10-24 14:00:42 51°13.638 2°56.012 20.3726 0.021326 0.123313 -3.020363